createdAt,value
2023-01-29T00:00:02.907Z,1.69
2023-01-29T00:05:13.035Z,1.72
2023-01-29T00:10:00.761Z,1.70
2023-01-29T00:15:00.696Z,1.67
2023-01-29T00:20:00.724Z,1.62
2023-01-29T00:25:00.692Z,1.61
2023-01-29T00:30:00.700Z,1.53
2023-01-29T00:35:00.763Z,1.51
2023-01-29T00:40:00.728Z,1.45
2023-01-29T00:45:00.819Z,1.42
2023-01-29T00:50:04.602Z,1.48
2023-01-29T00:55:03.339Z,1.53
2023-01-29T01:00:02.377Z,1.53
2023-01-29T01:05:00.860Z,1.49
2023-01-29T01:10:00.722Z,1.50
2023-01-29T01:15:00.718Z,1.46
2023-01-29T01:20:01.098Z,1.41
2023-01-29T01:25:00.696Z,1.32
2023-01-29T01:30:00.715Z,1.29
2023-01-29T01:35:00.749Z,1.18
2023-01-29T01:40:00.712Z,1.20
2023-01-29T01:45:04.363Z,1.17
2023-01-29T01:50:06.061Z,1.12
2023-01-29T01:55:01.309Z,1.10
2023-01-29T02:00:12.844Z,1.12
2023-01-29T02:05:01.238Z,1.11
2023-01-29T02:10:14.809Z,1.14
2023-01-29T02:15:01.076Z,1.12
2023-01-29T02:20:14.164Z,1.07
2023-01-29T02:25:20.572Z,1.10
2023-01-29T02:30:04.327Z,1.03
2023-01-29T02:35:14.749Z,1.06
2023-01-29T02:40:16.677Z,1.05
2023-01-29T02:45:14.697Z,1.04
2023-01-29T02:50:15.857Z,1.09
2023-01-29T02:55:10.753Z,1.08
2023-01-29T03:00:12.533Z,1.05
2023-01-29T03:05:05.829Z,1.11
2023-01-29T03:10:03.656Z,1.11
2023-01-29T03:15:12.362Z,1.11
2023-01-29T03:20:05.797Z,1.12
2023-01-29T03:25:03.843Z,1.08
2023-01-29T03:30:03.584Z,1.06
2023-01-29T03:35:04.287Z,1.07
2023-01-29T03:40:02.648Z,1.07
2023-01-29T03:45:14.342Z,1.10
2023-01-29T03:50:10.296Z,1.10
2023-01-29T03:55:14.258Z,1.12
2023-01-29T04:00:11.037Z,1.17
2023-01-29T04:05:07.061Z,1.14
2023-01-29T04:10:06.915Z,1.19
2023-01-29T04:15:01.173Z,1.16
2023-01-29T04:20:01.239Z,1.22
2023-01-29T04:25:06.185Z,1.23
2023-01-29T04:30:16.552Z,1.24
2023-01-29T04:35:14.431Z,1.29
2023-01-29T04:40:16.705Z,1.30
2023-01-29T04:45:06.959Z,1.34
2023-01-29T04:50:10.663Z,1.36
2023-01-29T04:55:20.595Z,1.37
2023-01-29T05:00:10.898Z,1.38
2023-01-29T05:05:02.457Z,1.41
2023-01-29T05:10:02.024Z,1.45
2023-01-29T05:15:02.801Z,1.43
2023-01-29T05:20:00.757Z,1.51
2023-01-29T05:25:00.705Z,1.50
2023-01-29T05:30:00.745Z,1.51
2023-01-29T05:35:00.927Z,1.50
2023-01-29T05:40:00.696Z,1.54
2023-01-29T05:45:00.794Z,1.57
2023-01-29T05:50:00.705Z,1.59
2023-01-29T05:55:00.853Z,1.58
2023-01-29T06:00:01.466Z,1.61
2023-01-29T06:05:00.696Z,1.64
2023-01-29T06:10:01.085Z,1.67
2023-01-29T06:15:00.724Z,1.64
2023-01-29T06:20:01.124Z,1.65
2023-01-29T06:25:00.690Z,1.66
2023-01-29T06:30:00.786Z,1.66
2023-01-29T06:35:00.692Z,1.68
2023-01-29T06:40:01.258Z,1.69
2023-01-29T06:45:00.676Z,1.69
2023-01-29T06:50:00.717Z,1.71
2023-01-29T06:55:01.180Z,1.72
2023-01-29T07:00:02.640Z,1.76
2023-01-29T07:05:00.704Z,1.78
2023-01-29T07:10:00.695Z,1.77
2023-01-29T07:15:00.751Z,1.80
2023-01-29T07:20:00.756Z,1.83
2023-01-29T07:25:00.746Z,1.81
2023-01-29T07:30:00.708Z,1.83
2023-01-29T07:35:00.687Z,1.82
2023-01-29T07:40:00.968Z,1.83
2023-01-29T07:45:00.805Z,1.88
2023-01-29T07:50:00.903Z,1.92
2023-01-29T07:55:00.821Z,1.93
2023-01-29T08:00:01.198Z,1.95
2023-01-29T08:05:00.692Z,1.97
2023-01-29T08:10:00.804Z,2.01
2023-01-29T08:15:00.772Z,2.02
2023-01-29T08:20:00.795Z,2.02
2023-01-29T08:25:08.271Z,2.06
2023-01-29T08:30:00.941Z,2.09
2023-01-29T08:35:00.745Z,2.10
2023-01-29T08:40:00.760Z,2.12
2023-01-29T08:45:00.722Z,2.14
2023-01-29T08:50:00.727Z,2.18
2023-01-29T08:55:00.672Z,2.20
2023-01-29T09:00:03.941Z,2.22
2023-01-29T09:05:00.712Z,2.27
2023-01-29T09:10:01.104Z,2.34
2023-01-29T09:15:00.743Z,2.36
2023-01-29T09:20:00.728Z,2.41
2023-01-29T09:25:00.693Z,2.43
2023-01-29T09:30:00.763Z,2.47
2023-01-29T09:35:00.722Z,2.52
2023-01-29T09:40:00.708Z,2.54
2023-01-29T09:45:04.722Z,2.59
2023-01-29T09:50:05.599Z,2.59
2023-01-29T09:55:10.574Z,2.70
2023-01-29T10:00:01.443Z,2.70
2023-01-29T10:05:13.714Z,2.75
2023-01-29T10:10:15.655Z,2.87
2023-01-29T10:15:11.655Z,2.95
2023-01-29T10:20:20.424Z,3.04
2023-01-29T10:25:04.477Z,3.16
2023-01-29T10:30:06.151Z,3.22
2023-01-29T10:35:11.789Z,3.25
2023-01-29T10:40:00.747Z,3.22
2023-01-29T10:45:20.862Z,3.32
2023-01-29T10:50:16.093Z,3.40
2023-01-29T10:55:10.633Z,3.43
2023-01-29T11:00:08.451Z,3.53
2023-01-29T11:05:00.726Z,3.48
2023-01-29T11:10:10.407Z,3.47
2023-01-29T11:15:10.647Z,3.49
2023-01-29T11:20:00.763Z,3.52
2023-01-29T11:25:15.106Z,3.51
2023-01-29T11:30:01.034Z,3.54
2023-01-29T11:35:13.894Z,3.52
2023-01-29T11:40:11.408Z,3.57
2023-01-29T11:45:00.688Z,3.53
2023-01-29T11:50:01.975Z,3.59
2023-01-29T11:55:16.667Z,3.60
2023-01-29T12:00:05.984Z,3.57
2023-01-29T12:05:04.687Z,3.57
2023-01-29T12:10:00.985Z,3.53
2023-01-29T12:15:05.284Z,3.54
2023-01-29T12:20:18.469Z,3.56
2023-01-29T12:25:18.971Z,3.58
2023-01-29T12:30:11.682Z,3.57
2023-01-29T12:40:00.945Z,3.57
2023-01-29T12:45:02.762Z,3.55
2023-01-29T12:50:06.931Z,3.59
2023-01-29T12:55:07.892Z,3.62
2023-01-29T13:00:05.255Z,3.65
2023-01-29T13:05:11.582Z,3.63
2023-01-29T13:10:10.283Z,3.69
2023-01-29T13:15:05.057Z,3.60
2023-01-29T13:20:20.519Z,3.60
2023-01-29T13:25:05.133Z,3.64
2023-01-29T13:30:01.107Z,3.61
2023-01-29T13:35:05.507Z,3.64
2023-01-29T13:40:02.992Z,3.65
2023-01-29T13:45:04.659Z,3.72
2023-01-29T13:50:19.986Z,3.79
2023-01-29T13:55:07.290Z,3.93
2023-01-29T14:00:01.092Z,3.98
2023-01-29T14:05:20.522Z,4.03
2023-01-29T14:10:13.801Z,4.07
2023-01-29T14:15:12.962Z,4.01
2023-01-29T14:20:07.012Z,4.07
2023-01-29T14:25:03.482Z,3.98
2023-01-29T14:30:05.606Z,3.92
2023-01-29T14:35:02.924Z,3.91
2023-01-29T14:40:10.576Z,3.92
2023-01-29T14:45:20.587Z,3.84
2023-01-29T14:50:11.651Z,3.83
2023-01-29T14:55:05.818Z,3.83
2023-01-29T15:00:03.792Z,3.84
2023-01-29T15:05:02.434Z,3.87
2023-01-29T15:10:22.275Z,3.83
2023-01-29T15:15:20.523Z,3.80
2023-01-29T15:20:00.791Z,3.79
2023-01-29T15:25:04.578Z,3.73
2023-01-29T15:30:04.584Z,3.77
2023-01-29T15:35:06.585Z,3.74
2023-01-29T15:40:01.152Z,3.76
2023-01-29T15:45:01.973Z,3.70
2023-01-29T15:50:01.008Z,3.70
2023-01-29T15:55:04.665Z,3.68
2023-01-29T16:00:01.655Z,3.68
2023-01-29T16:05:01.453Z,3.68
2023-01-29T16:10:01.750Z,3.68
2023-01-29T16:15:03.197Z,3.72
2023-01-29T16:20:03.336Z,3.71
2023-01-29T16:25:02.987Z,3.68
2023-01-29T16:30:00.951Z,3.63
2023-01-29T16:35:00.824Z,3.57
2023-01-29T16:40:14.688Z,3.55
2023-01-29T16:45:02.469Z,3.43
2023-01-29T16:50:12.700Z,3.42
2023-01-29T16:55:10.573Z,3.37
2023-01-29T17:00:06.165Z,3.34
2023-01-29T17:05:04.632Z,3.21
2023-01-29T17:10:03.570Z,3.12
2023-01-29T17:15:04.427Z,3.12
2023-01-29T17:20:11.354Z,3.13
2023-01-29T17:25:00.632Z,3.22
2023-01-29T17:30:00.698Z,3.23
2023-01-29T17:35:00.757Z,3.24
2023-01-29T17:40:00.634Z,3.36
2023-01-29T17:45:00.614Z,3.37
2023-01-29T17:50:00.657Z,3.35
2023-01-29T17:55:00.627Z,3.32
2023-01-29T18:00:15.513Z,3.36
2023-01-29T18:05:00.629Z,3.38
2023-01-29T18:10:00.632Z,3.36
2023-01-29T18:15:00.636Z,3.37
2023-01-29T18:20:01.161Z,3.34
2023-01-29T18:25:00.632Z,3.32
2023-01-29T18:30:00.698Z,3.35
2023-01-29T18:35:00.715Z,3.32
2023-01-29T18:40:00.773Z,3.35
2023-01-29T18:45:01.161Z,3.25
2023-01-29T18:50:00.710Z,3.27
2023-01-29T18:55:00.647Z,3.26
2023-01-29T19:00:01.026Z,3.24
2023-01-29T19:05:00.986Z,3.27
2023-01-29T19:10:00.635Z,3.22
2023-01-29T19:15:00.896Z,3.26
2023-01-29T19:20:00.802Z,3.23
2023-01-29T19:25:00.663Z,3.28
2023-01-29T19:30:00.852Z,3.26
2023-01-29T19:35:00.880Z,3.28
2023-01-29T19:40:00.653Z,3.26
2023-01-29T19:45:00.664Z,3.26
2023-01-29T19:50:00.629Z,3.28
2023-01-29T19:55:01.986Z,3.30
2023-01-29T20:00:02.990Z,3.36
2023-01-29T20:05:00.630Z,3.38
2023-01-29T20:10:00.644Z,3.43
2023-01-29T20:15:00.641Z,3.47
2023-01-29T20:20:00.667Z,3.48
2023-01-29T20:25:00.633Z,3.47
2023-01-29T20:30:00.609Z,3.50
2023-01-29T20:35:00.813Z,3.53
2023-01-29T20:40:00.661Z,3.54
2023-01-29T20:45:00.679Z,3.54
2023-01-29T20:50:00.659Z,3.55
2023-01-29T20:55:01.203Z,3.55
2023-01-29T21:00:02.347Z,3.61
2023-01-29T21:05:00.660Z,3.65
2023-01-29T21:10:00.651Z,3.64
2023-01-29T21:15:00.697Z,3.67
2023-01-29T21:20:00.653Z,3.65
2023-01-29T21:25:00.646Z,3.66
2023-01-29T21:30:00.681Z,3.69
2023-01-29T21:35:00.647Z,3.76
2023-01-29T21:40:00.624Z,3.81
2023-01-29T21:45:00.669Z,3.79
2023-01-29T21:50:00.631Z,3.87
2023-01-29T21:55:00.897Z,3.88
2023-01-29T22:00:01.934Z,3.90
2023-01-29T22:05:16.581Z,3.91
2023-01-29T22:10:00.714Z,3.92
2023-01-29T22:15:00.639Z,3.90
2023-01-29T22:20:01.033Z,3.87
2023-01-29T22:25:00.648Z,3.90
2023-01-29T22:30:00.697Z,3.96
2023-01-29T22:35:00.685Z,4.05
2023-01-29T22:40:00.848Z,4.05
2023-01-29T22:45:00.644Z,4.09
2023-01-29T22:50:00.627Z,4.15
2023-01-29T22:55:00.637Z,4.19
2023-01-29T23:00:02.827Z,4.24
2023-01-29T23:05:01.043Z,4.30
2023-01-29T23:10:00.726Z,4.41
2023-01-29T23:15:00.637Z,4.44
2023-01-29T23:20:00.668Z,4.45
2023-01-29T23:25:00.622Z,4.51
2023-01-29T23:30:00.858Z,4.55
2023-01-29T23:35:00.657Z,4.62
2023-01-29T23:40:00.660Z,4.65
2023-01-29T23:45:00.657Z,4.69
2023-01-29T23:50:00.662Z,4.70
2023-01-29T23:55:00.628Z,4.74
